sensor_id;sensor_type;location;lat;lon;timestamp;pressure;altitude;pressure_sealevel;temperature;humidity
61961;BME280;47923;42.506;24.192;2023-02-28T00:00:21;96012.91;;;7.60;84.55
61961;BME280;47923;42.506;24.192;2023-02-28T00:02:47;95940.09;;;7.14;84.55
61961;BME280;47923;42.506;24.192;2023-02-28T00:05:16;95637.81;;;5.10;85.17
61961;BME280;47923;42.506;24.192;2023-02-28T00:07:42;96020.59;;;7.40;86.38
61961;BME280;47923;42.506;24.192;2023-02-28T00:10:15;95940.19;;;6.88;87.71
61961;BME280;47923;42.506;24.192;2023-02-28T00:12:44;95810.22;;;6.13;88.13
61961;BME280;47923;42.506;24.192;2023-02-28T00:15:10;95938.47;;;6.92;88.85
61961;BME280;47923;42.506;24.192;2023-02-28T00:17:36;96004.97;;;7.34;88.44
61961;BME280;47923;42.506;24.192;2023-02-28T00:20:02;96007.97;;;7.32;88.41
61961;BME280;47923;42.506;24.192;2023-02-28T00:22:30;95972.97;;;7.11;88.48
61961;BME280;47923;42.506;24.192;2023-02-28T00:24:55;95968.38;;;7.12;88.58
61961;BME280;47923;42.506;24.192;2023-02-28T00:27:21;95927.88;;;6.87;87.27
61961;BME280;47923;42.506;24.192;2023-02-28T00:29:47;96000.34;;;7.43;86.36
61961;BME280;47923;42.506;24.192;2023-02-28T00:32:12;95993.75;;;7.32;87.07
61961;BME280;47923;42.506;24.192;2023-02-28T00:34:38;96009.78;;;7.49;87.13
61961;BME280;47923;42.506;24.192;2023-02-28T00:37:08;95997.16;;;7.50;88.26
61961;BME280;47923;42.506;24.192;2023-02-28T00:39:35;95750.47;;;5.87;89.42
61961;BME280;47923;42.506;24.192;2023-02-28T00:42:02;96002.72;;;7.44;89.92
61961;BME280;47923;42.506;24.192;2023-02-28T00:44:28;95937.63;;;7.01;90.02
61961;BME280;47923;42.506;24.192;2023-02-28T00:46:53;95842.34;;;6.39;89.83
61961;BME280;47923;42.506;24.192;2023-02-28T00:49:20;96010.94;;;7.39;90.37
61961;BME280;47923;42.506;24.192;2023-02-28T00:51:45;95965.19;;;7.18;89.55
61961;BME280;47923;42.506;24.192;2023-02-28T00:54:11;95904.69;;;6.83;89.44
61961;BME280;47923;42.506;24.192;2023-02-28T00:56:36;95913.84;;;6.82;89.43
61961;BME280;47923;42.506;24.192;2023-02-28T00:59:02;96000.53;;;7.38;89.71
61961;BME280;47923;42.506;24.192;2023-02-28T01:01:28;95995.28;;;7.41;89.66
61961;BME280;47923;42.506;24.192;2023-02-28T01:03:53;95782.78;;;6.07;88.99
61961;BME280;47923;42.506;24.192;2023-02-28T01:06:18;95821.16;;;6.37;88.19
61961;BME280;47923;42.506;24.192;2023-02-28T01:08:44;95975.41;;;7.34;87.52
61961;BME280;47923;42.506;24.192;2023-02-28T01:11:11;95764.38;;;5.97;88.56
61961;BME280;47923;42.506;24.192;2023-02-28T01:13:37;95855.34;;;6.58;89.08
61961;BME280;47923;42.506;24.192;2023-02-28T01:16:03;95841.03;;;6.54;88.45
61961;BME280;47923;42.506;24.192;2023-02-28T01:18:28;95806.34;;;6.31;88.66
61961;BME280;47923;42.506;24.192;2023-02-28T01:20:54;95997.91;;;7.59;89.39
61961;BME280;47923;42.506;24.192;2023-02-28T01:23:21;95933.75;;;7.19;89.39
61961;BME280;47923;42.506;24.192;2023-02-28T01:25:49;96003.09;;;7.64;89.41
61961;BME280;47923;42.506;24.192;2023-02-28T01:28:15;95996.25;;;7.66;87.99
61961;BME280;47923;42.506;24.192;2023-02-28T01:30:40;95994.81;;;7.69;87.37
61961;BME280;47923;42.506;24.192;2023-02-28T01:33:06;95956.50;;;7.51;87.77
61961;BME280;47923;42.506;24.192;2023-02-28T01:35:35;95761.38;;;6.28;88.09
61961;BME280;47923;42.506;24.192;2023-02-28T01:38:02;95892.97;;;7.17;88.40
61961;BME280;47923;42.506;24.192;2023-02-28T01:40:28;95705.19;;;5.94;88.29
61961;BME280;47923;42.506;24.192;2023-02-28T01:42:53;95974.81;;;7.58;88.29
61961;BME280;47923;42.506;24.192;2023-02-28T01:45:26;95980.09;;;7.45;88.08
61961;BME280;47923;42.506;24.192;2023-02-28T01:47:55;95951.63;;;7.15;89.36
61961;BME280;47923;42.506;24.192;2023-02-28T01:50:27;95980.03;;;7.25;91.01
61961;BME280;47923;42.506;24.192;2023-02-28T01:52:55;95964.03;;;6.99;92.35
61961;BME280;47923;42.506;24.192;2023-02-28T01:55:23;95997.31;;;7.15;92.46
61961;BME280;47923;42.506;24.192;2023-02-28T01:57:55;95744.72;;;5.59;92.45
61961;BME280;47923;42.506;24.192;2023-02-28T02:00:24;95982.16;;;7.10;92.66
61961;BME280;47923;42.506;24.192;2023-02-28T02:02:55;95981.38;;;7.10;93.09
61961;BME280;47923;42.506;24.192;2023-02-28T02:05:26;95967.34;;;6.96;92.39
61961;BME280;47923;42.506;24.192;2023-02-28T02:07:57;95834.03;;;6.15;92.03
61961;BME280;47923;42.506;24.192;2023-02-28T02:10:31;95984.16;;;7.22;92.08
61961;BME280;47923;42.506;24.192;2023-02-28T02:18:46;96003.31;;;7.12;92.31
61961;BME280;47923;42.506;24.192;2023-02-28T02:26:55;96008.97;;;7.19;92.87
61961;BME280;47923;42.506;24.192;2023-02-28T02:38:31;96014.59;;;7.05;91.68
61961;BME280;47923;42.506;24.192;2023-02-28T02:41:12;95947.75;;;6.57;92.79
61961;BME280;47923;42.506;24.192;2023-02-28T02:43:45;96016.66;;;7.00;93.71
61961;BME280;47923;42.506;24.192;2023-02-28T02:46:21;96027.22;;;7.05;93.94
61961;BME280;47923;42.506;24.192;2023-02-28T02:48:50;95868.47;;;6.04;93.29
61961;BME280;47923;42.506;24.192;2023-02-28T02:51:20;96007.81;;;6.99;93.52
61961;BME280;47923;42.506;24.192;2023-02-28T02:53:51;96017.72;;;7.07;93.77
61961;BME280;47923;42.506;24.192;2023-02-28T02:56:21;95938.88;;;6.65;92.94
61961;BME280;47923;42.506;24.192;2023-02-28T02:58:49;95241.94;;;2.09;91.77
61961;BME280;47923;42.506;24.192;2023-02-28T03:01:19;95992.47;;;7.00;92.32
61961;BME280;47923;42.506;24.192;2023-02-28T03:04:08;96071.31;;;7.51;91.89
61961;BME280;47923;42.506;24.192;2023-02-28T03:06:34;96035.66;;;7.33;91.39
61961;BME280;47923;42.506;24.192;2023-02-28T03:09:01;96069.22;;;7.56;90.85
61961;BME280;47923;42.506;24.192;2023-02-28T03:11:27;96077.00;;;7.58;90.65
61961;BME280;47923;42.506;24.192;2023-02-28T03:27:47;95840.22;;;6.06;91.23
61961;BME280;47923;42.506;24.192;2023-02-28T03:32:59;96098.88;;;7.77;92.10
61961;BME280;47923;42.506;24.192;2023-02-28T03:35:35;96096.00;;;7.82;91.55
61961;BME280;47923;42.506;24.192;2023-02-28T03:38:11;95918.50;;;6.64;91.19
61961;BME280;47923;42.506;24.192;2023-02-28T03:40:43;95871.22;;;6.42;91.33
61961;BME280;47923;42.506;24.192;2023-02-28T03:43:14;96025.50;;;7.38;91.51
61961;BME280;47923;42.506;24.192;2023-02-28T03:45:42;96043.28;;;7.60;91.42
61961;BME280;47923;42.506;24.192;2023-02-28T03:48:14;96103.13;;;7.87;92.47
61961;BME280;47923;42.506;24.192;2023-02-28T03:50:43;95968.31;;;7.00;92.50
61961;BME280;47923;42.506;24.192;2023-02-28T03:53:17;95810.44;;;5.91;92.84
61961;BME280;47923;42.506;24.192;2023-02-28T03:59:06;96117.09;;;7.71;93.63
61961;BME280;47923;42.506;24.192;2023-02-28T04:01:43;96120.59;;;7.63;93.69
61961;BME280;47923;42.506;24.192;2023-02-28T04:04:10;96092.22;;;7.45;93.26
61961;BME280;47923;42.506;24.192;2023-02-28T04:06:36;96121.22;;;7.69;93.53
61961;BME280;47923;42.506;24.192;2023-02-28T04:09:03;96120.25;;;7.73;93.37
61961;BME280;47923;42.506;24.192;2023-02-28T04:11:39;96133.25;;;7.71;93.24
61961;BME280;47923;42.506;24.192;2023-02-28T04:14:07;96130.03;;;7.78;92.67
61961;BME280;47923;42.506;24.192;2023-02-28T04:16:35;96128.94;;;7.79;92.12
61961;BME280;47923;42.506;24.192;2023-02-28T04:19:02;96138.09;;;7.78;92.25
61961;BME280;47923;42.506;24.192;2023-02-28T04:21:32;96000.69;;;6.95;92.35
61961;BME280;47923;42.506;24.192;2023-02-28T04:23:58;96142.59;;;7.65;93.01
61961;BME280;47923;42.506;24.192;2023-02-28T04:26:32;96142.16;;;7.55;93.35
61961;BME280;47923;42.506;24.192;2023-02-28T04:28:58;96147.06;;;7.53;94.02
61961;BME280;47923;42.506;24.192;2023-02-28T04:31:23;96068.66;;;6.86;94.36
61961;BME280;47923;42.506;24.192;2023-02-28T04:33:49;96053.00;;;6.88;94.50
61961;BME280;47923;42.506;24.192;2023-02-28T04:36:15;96039.31;;;6.64;94.92
61961;BME280;47923;42.506;24.192;2023-02-28T04:38:43;96155.19;;;7.35;94.94
61961;BME280;47923;42.506;24.192;2023-02-28T04:41:09;96150.44;;;7.32;95.31
61961;BME280;47923;42.506;24.192;2023-02-28T04:43:35;95704.75;;;4.41;95.42
61961;BME280;47923;42.506;24.192;2023-02-28T04:46:03;96150.00;;;7.22;96.31
61961;BME280;47923;42.506;24.192;2023-02-28T04:48:30;96155.38;;;7.22;96.64
61961;BME280;47923;42.506;24.192;2023-02-28T04:51:00;96157.09;;;7.26;96.37
61961;BME280;47923;42.506;24.192;2023-02-28T04:53:27;96173.56;;;7.07;96.94
61961;BME280;47923;42.506;24.192;2023-02-28T04:55:52;96143.97;;;7.25;96.79
61961;BME280;47923;42.506;24.192;2023-02-28T04:58:18;95919.41;;;5.69;96.78
61961;BME280;47923;42.506;24.192;2023-02-28T05:00:43;96132.63;;;7.02;97.10
61961;BME280;47923;42.506;24.192;2023-02-28T05:03:09;96164.38;;;7.26;96.90
61961;BME280;47923;42.506;24.192;2023-02-28T05:05:35;96175.75;;;7.23;96.62
61961;BME280;47923;42.506;24.192;2023-02-28T05:08:00;96175.09;;;7.26;96.62
61961;BME280;47923;42.506;24.192;2023-02-28T05:10:25;96171.19;;;7.14;97.03
61961;BME280;47923;42.506;24.192;2023-02-28T05:12:51;96186.19;;;7.15;97.08
61961;BME280;47923;42.506;24.192;2023-02-28T05:15:17;96178.63;;;7.09;97.58
61961;BME280;47923;42.506;24.192;2023-02-28T05:17:42;96191.41;;;7.03;97.63
61961;BME280;47923;42.506;24.192;2023-02-28T05:20:08;95929.47;;;5.38;98.04
61961;BME280;47923;42.506;24.192;2023-02-28T05:22:37;96193.63;;;7.01;98.68
61961;BME280;47923;42.506;24.192;2023-02-28T05:25:04;96199.66;;;7.07;98.65
61961;BME280;47923;42.506;24.192;2023-02-28T05:27:30;96178.16;;;6.72;98.92
61961;BME280;47923;42.506;24.192;2023-02-28T05:29:56;96204.22;;;6.89;99.27
61961;BME280;47923;42.506;24.192;2023-02-28T05:32:21;95950.84;;;5.20;99.85
61961;BME280;47923;42.506;24.192;2023-02-28T05:34:47;96202.00;;;6.74;100.00
61961;BME280;47923;42.506;24.192;2023-02-28T05:37:13;96216.22;;;6.57;99.83
61961;BME280;47923;42.506;24.192;2023-02-28T05:39:40;96083.97;;;5.91;100.00
61961;BME280;47923;42.506;24.192;2023-02-28T05:42:05;95929.19;;;4.91;100.00
61961;BME280;47923;42.506;24.192;2023-02-28T05:44:31;96034.78;;;5.38;100.00
61961;BME280;47923;42.506;24.192;2023-02-28T05:46:57;95869.78;;;4.40;100.00
61961;BME280;47923;42.506;24.192;2023-02-28T05:49:22;96172.59;;;6.34;100.00
61961;BME280;47923;42.506;24.192;2023-02-28T05:51:48;95662.16;;;3.17;100.00
61961;BME280;47923;42.506;24.192;2023-02-28T05:54:13;96225.06;;;6.75;100.00
61961;BME280;47923;42.506;24.192;2023-02-28T05:56:39;96225.69;;;6.72;100.00
61961;BME280;47923;42.506;24.192;2023-02-28T05:59:06;96220.00;;;6.73;100.00
61961;BME280;47923;42.506;24.192;2023-02-28T06:01:37;96176.84;;;6.35;100.00
61961;BME280;47923;42.506;24.192;2023-02-28T06:04:04;96209.88;;;6.53;100.00
61961;BME280;47923;42.506;24.192;2023-02-28T06:06:30;96109.00;;;5.86;100.00
61961;BME280;47923;42.506;24.192;2023-02-28T06:08:56;96233.44;;;6.73;100.00
61961;BME280;47923;42.506;24.192;2023-02-28T06:11:22;96038.72;;;5.49;100.00
61961;BME280;47923;42.506;24.192;2023-02-28T06:13:54;96233.44;;;6.82;100.00
61961;BME280;47923;42.506;24.192;2023-02-28T06:16:20;96228.41;;;6.80;100.00
61961;BME280;47923;42.506;24.192;2023-02-28T06:18:45;96216.53;;;6.64;100.00
61961;BME280;47923;42.506;24.192;2023-02-28T06:21:12;96081.44;;;5.94;100.00
61961;BME280;47923;42.506;24.192;2023-02-28T06:23:37;96227.94;;;6.96;100.00
61961;BME280;47923;42.506;24.192;2023-02-28T06:26:03;96236.44;;;6.98;100.00
61961;BME280;47923;42.506;24.192;2023-02-28T06:28:28;96225.25;;;6.96;100.00
61961;BME280;47923;42.506;24.192;2023-02-28T06:30:54;96121.59;;;6.25;100.00
61961;BME280;47923;42.506;24.192;2023-02-28T06:33:19;95943.13;;;5.10;100.00
61961;BME280;47923;42.506;24.192;2023-02-28T06:35:47;96239.63;;;7.00;100.00
61961;BME280;47923;42.506;24.192;2023-02-28T06:38:12;96247.50;;;7.05;100.00
61961;BME280;47923;42.506;24.192;2023-02-28T06:40:38;96160.75;;;6.61;100.00
61961;BME280;47923;42.506;24.192;2023-02-28T06:43:04;96248.81;;;7.07;100.00
61961;BME280;47923;42.506;24.192;2023-02-28T06:45:29;96242.63;;;7.07;100.00
61961;BME280;47923;42.506;24.192;2023-02-28T06:47:55;96151.13;;;6.51;100.00
61961;BME280;47923;42.506;24.192;2023-02-28T06:50:21;96240.09;;;7.02;100.00
61961;BME280;47923;42.506;24.192;2023-02-28T06:52:46;95607.25;;;3.02;100.00
61961;BME280;47923;42.506;24.192;2023-02-28T06:55:12;95661.78;;;3.41;100.00
61961;BME280;47923;42.506;24.192;2023-02-28T06:57:38;96130.13;;;6.45;100.00
61961;BME280;47923;42.506;24.192;2023-02-28T07:00:07;96244.38;;;7.20;100.00
61961;BME280;47923;42.506;24.192;2023-02-28T07:02:34;96109.09;;;6.12;99.89
61961;BME280;47923;42.506;24.192;2023-02-28T07:05:00;96248.34;;;7.05;99.99
61961;BME280;47923;42.506;24.192;2023-02-28T07:07:26;96247.06;;;7.03;100.00
61961;BME280;47923;42.506;24.192;2023-02-28T07:09:51;96254.66;;;7.01;100.00
61961;BME280;47923;42.506;24.192;2023-02-28T07:12:17;96251.63;;;7.02;100.00
61961;BME280;47923;42.506;24.192;2023-02-28T07:14:43;96254.78;;;6.96;100.00
61961;BME280;47923;42.506;24.192;2023-02-28T07:17:09;95820.41;;;3.53;99.98
61961;BME280;47923;42.506;24.192;2023-02-28T07:19:38;96266.78;;;6.89;100.00
61961;BME280;47923;42.506;24.192;2023-02-28T07:22:04;96262.69;;;6.92;100.00
61961;BME280;47923;42.506;24.192;2023-02-28T07:24:29;96226.16;;;6.65;100.00
61961;BME280;47923;42.506;24.192;2023-02-28T07:26:55;96238.19;;;6.76;100.00
61961;BME280;47923;42.506;24.192;2023-02-28T07:29:21;96032.44;;;5.54;100.00
61961;BME280;47923;42.506;24.192;2023-02-28T07:31:47;95774.84;;;3.58;100.00
61961;BME280;47923;42.506;24.192;2023-02-28T07:34:13;96269.50;;;7.07;100.00
61961;BME280;47923;42.506;24.192;2023-02-28T07:36:39;96043.50;;;5.61;100.00
61961;BME280;47923;42.506;24.192;2023-02-28T07:39:04;96242.94;;;6.88;100.00
61961;BME280;47923;42.506;24.192;2023-02-28T07:41:30;96039.84;;;5.57;99.97
61961;BME280;47923;42.506;24.192;2023-02-28T07:43:58;96223.94;;;6.67;100.00
61961;BME280;47923;42.506;24.192;2023-02-28T07:46:25;96285.63;;;7.07;100.00
61961;BME280;47923;42.506;24.192;2023-02-28T07:48:51;96282.63;;;7.00;99.77
61961;BME280;47923;42.506;24.192;2023-02-28T07:51:18;96223.91;;;6.41;99.16
61961;BME280;47923;42.506;24.192;2023-02-28T07:53:43;96295.34;;;6.68;99.76
61961;BME280;47923;42.506;24.192;2023-02-28T07:56:09;96064.00;;;5.17;99.77
61961;BME280;47923;42.506;24.192;2023-02-28T07:58:36;96198.56;;;6.07;99.92
61961;BME280;47923;42.506;24.192;2023-02-28T08:01:10;96149.59;;;5.93;100.00
61961;BME280;47923;42.506;24.192;2023-02-28T08:03:36;96225.78;;;6.32;99.56
61961;BME280;47923;42.506;24.192;2023-02-28T08:06:04;96288.91;;;6.86;99.17
61961;BME280;47923;42.506;24.192;2023-02-28T08:08:30;96289.56;;;6.83;98.70
61961;BME280;47923;42.506;24.192;2023-02-28T08:11:01;96117.47;;;5.71;99.17
61961;BME280;47923;42.506;24.192;2023-02-28T08:13:28;95844.94;;;4.09;98.97
61961;BME280;47923;42.506;24.192;2023-02-28T08:15:57;95597.78;;;2.42;98.77
61961;BME280;47923;42.506;24.192;2023-02-28T08:18:23;96292.13;;;7.14;98.88
61961;BME280;47923;42.506;24.192;2023-02-28T08:20:49;96031.31;;;5.46;99.23
61961;BME280;47923;42.506;24.192;2023-02-28T08:23:15;95977.50;;;5.25;98.19
61961;BME280;47923;42.506;24.192;2023-02-28T08:25:40;96294.97;;;7.44;98.49
61961;BME280;47923;42.506;24.192;2023-02-28T08:28:05;96262.06;;;7.47;98.13
61961;BME280;47923;42.506;24.192;2023-02-28T08:30:31;96253.34;;;7.41;97.38
61961;BME280;47923;42.506;24.192;2023-02-28T08:32:57;96066.03;;;6.34;97.08
61961;BME280;47923;42.506;24.192;2023-02-28T08:35:23;96270.22;;;7.76;95.65
61961;BME280;47923;42.506;24.192;2023-02-28T08:37:49;96228.00;;;7.68;95.97
61961;BME280;47923;42.506;24.192;2023-02-28T08:40:15;95978.59;;;5.99;94.29
61961;BME280;47923;42.506;24.192;2023-02-28T08:42:47;96259.16;;;7.87;94.39
61961;BME280;47923;42.506;24.192;2023-02-28T08:45:14;96261.53;;;7.80;94.10
61961;BME280;47923;42.506;24.192;2023-02-28T08:47:40;96266.16;;;7.53;93.56
61961;BME280;47923;42.506;24.192;2023-02-28T08:50:07;96275.66;;;7.51;93.67
61961;BME280;47923;42.506;24.192;2023-02-28T08:52:33;95831.13;;;4.55;93.97
61961;BME280;47923;42.506;24.192;2023-02-28T08:54:58;96278.50;;;7.45;94.83
61961;BME280;47923;42.506;24.192;2023-02-28T08:57:24;96246.56;;;7.27;94.03
61961;BME280;47923;42.506;24.192;2023-02-28T08:59:51;96168.84;;;6.78;94.23
61961;BME280;47923;42.506;24.192;2023-02-28T09:02:17;96277.38;;;7.55;94.27
61961;BME280;47923;42.506;24.192;2023-02-28T09:04:43;96260.50;;;7.20;93.88
61961;BME280;47923;42.506;24.192;2023-02-28T09:07:10;96279.44;;;7.58;93.54
61961;BME280;47923;42.506;24.192;2023-02-28T09:09:36;96272.81;;;7.64;93.41
61961;BME280;47923;42.506;24.192;2023-02-28T09:12:02;96145.78;;;6.77;93.14
61961;BME280;47923;42.506;24.192;2023-02-28T09:14:28;96247.97;;;7.41;92.65
61961;BME280;47923;42.506;24.192;2023-02-28T09:16:53;96241.16;;;7.61;92.03
61961;BME280;47923;42.506;24.192;2023-02-28T09:19:19;96248.41;;;7.69;91.71
61961;BME280;47923;42.506;24.192;2023-02-28T09:21:45;96088.72;;;6.80;90.65
61961;BME280;47923;42.506;24.192;2023-02-28T09:24:11;96224.06;;;7.66;90.42
61961;BME280;47923;42.506;24.192;2023-02-28T09:26:39;95933.00;;;5.73;89.67
61961;BME280;47923;42.506;24.192;2023-02-28T09:29:05;96223.59;;;7.55;89.97
61961;BME280;47923;42.506;24.192;2023-02-28T09:31:32;96277.00;;;7.91;90.06
61961;BME280;47923;42.506;24.192;2023-02-28T09:33:58;96248.22;;;7.83;89.75
61961;BME280;47923;42.506;24.192;2023-02-28T09:36:25;96272.66;;;8.16;90.20
61961;BME280;47923;42.506;24.192;2023-02-28T09:38:51;96276.44;;;8.24;90.48
61961;BME280;47923;42.506;24.192;2023-02-28T09:41:35;96208.94;;;7.91;90.24
61961;BME280;47923;42.506;24.192;2023-02-28T09:44:06;96166.81;;;7.65;89.14
61961;BME280;47923;42.506;24.192;2023-02-28T09:46:40;96271.41;;;8.05;89.15
61961;BME280;47923;42.506;24.192;2023-02-28T09:49:19;96259.09;;;8.04;89.28
61961;BME280;47923;42.506;24.192;2023-02-28T09:51:50;96254.63;;;7.53;90.21
61961;BME280;47923;42.506;24.192;2023-02-28T09:54:24;96094.28;;;6.67;90.28
61961;BME280;47923;42.506;24.192;2023-02-28T09:56:58;96204.66;;;7.43;91.28
61961;BME280;47923;42.506;24.192;2023-02-28T10:05:02;96265.84;;;7.46;92.47
61961;BME280;47923;42.506;24.192;2023-02-28T10:07:43;96265.06;;;7.45;92.51
61961;BME280;47923;42.506;24.192;2023-02-28T10:10:39;96254.66;;;7.35;93.32
61961;BME280;47923;42.506;24.192;2023-02-28T10:13:23;96261.56;;;7.62;92.83
61961;BME280;47923;42.506;24.192;2023-02-28T10:15:57;96186.34;;;7.36;92.16
61961;BME280;47923;42.506;24.192;2023-02-28T10:18:29;96245.53;;;7.83;92.44
61961;BME280;47923;42.506;24.192;2023-02-28T10:20:56;95982.53;;;6.19;91.23
61961;BME280;47923;42.506;24.192;2023-02-28T10:23:27;96250.28;;;7.78;90.77
61961;BME280;47923;42.506;24.192;2023-02-28T10:26:14;96094.56;;;6.82;90.58
61961;BME280;47923;42.506;24.192;2023-02-28T10:28:44;96099.78;;;6.96;90.55
61961;BME280;47923;42.506;24.192;2023-02-28T10:31:15;96072.47;;;6.85;90.82
61961;BME280;47923;42.506;24.192;2023-02-28T10:33:43;96132.66;;;7.48;90.57
61961;BME280;47923;42.506;24.192;2023-02-28T10:36:13;96228.97;;;8.11;89.41
61961;BME280;47923;42.506;24.192;2023-02-28T10:38:40;96229.06;;;7.93;89.83
61961;BME280;47923;42.506;24.192;2023-02-28T10:41:11;96203.00;;;7.68;90.00
61961;BME280;47923;42.506;24.192;2023-02-28T10:43:39;96233.50;;;7.89;89.88
61961;BME280;47923;42.506;24.192;2023-02-28T10:48:44;96237.38;;;7.45;91.16
61961;BME280;47923;42.506;24.192;2023-02-28T10:51:16;96232.66;;;7.42;91.81
61961;BME280;47923;42.506;24.192;2023-02-28T10:58:57;96164.25;;;7.13;91.62
61961;BME280;47923;42.506;24.192;2023-02-28T11:03:55;96222.09;;;7.84;90.72
61961;BME280;47923;42.506;24.192;2023-02-28T11:06:28;96209.28;;;7.89;90.83
61961;BME280;47923;42.506;24.192;2023-02-28T11:09:13;96181.78;;;7.75;89.74
61961;BME280;47923;42.506;24.192;2023-02-28T11:11:44;96163.28;;;7.73;89.98
61961;BME280;47923;42.506;24.192;2023-02-28T11:14:29;96193.66;;;7.74;91.46
61961;BME280;47923;42.506;24.192;2023-02-28T11:17:12;96009.00;;;6.46;91.66
61961;BME280;47923;42.506;24.192;2023-02-28T11:19:44;96182.63;;;7.67;91.88
61961;BME280;47923;42.506;24.192;2023-02-28T11:22:11;95765.25;;;4.94;91.75
61961;BME280;47923;42.506;24.192;2023-02-28T11:24:44;95902.38;;;5.82;92.02
61961;BME280;47923;42.506;24.192;2023-02-28T11:29:57;96153.72;;;7.93;91.28
61961;BME280;47923;42.506;24.192;2023-02-28T11:32:24;96144.28;;;7.79;91.41
61961;BME280;47923;42.506;24.192;2023-02-28T11:37:37;96158.06;;;8.07;91.24
61961;BME280;47923;42.506;24.192;2023-02-28T11:40:15;96099.66;;;7.78;90.27
61961;BME280;47923;42.506;24.192;2023-02-28T11:43:13;96045.59;;;7.32;90.50
61961;BME280;47923;42.506;24.192;2023-02-28T11:46:00;96152.44;;;7.91;89.98
61961;BME280;47923;42.506;24.192;2023-02-28T11:51:33;96166.41;;;8.14;89.48
61961;BME280;47923;42.506;24.192;2023-02-28T11:54:21;96168.47;;;7.87;89.65
61961;BME280;47923;42.506;24.192;2023-02-28T11:56:56;95912.16;;;6.13;90.68
61961;BME280;47923;42.506;24.192;2023-02-28T12:02:24;96161.09;;;7.67;91.66
61961;BME280;47923;42.506;24.192;2023-02-28T12:05:50;96159.06;;;7.64;91.47
61961;BME280;47923;42.506;24.192;2023-02-28T12:08:02;96152.78;;;7.51;92.23
61961;BME280;47923;42.506;24.192;2023-02-28T12:13:40;96151.41;;;7.28;93.14
61961;BME280;47923;42.506;24.192;2023-02-28T12:16:25;96155.19;;;7.27;93.97
61961;BME280;47923;42.506;24.192;2023-02-28T12:22:04;96150.63;;;7.18;93.81
61961;BME280;47923;42.506;24.192;2023-02-28T12:27:21;96063.31;;;6.60;94.67
61961;BME280;47923;42.506;24.192;2023-02-28T12:29:56;96165.34;;;7.12;94.68
61961;BME280;47923;42.506;24.192;2023-02-28T12:32:30;96162.81;;;7.07;95.32
61961;BME280;47923;42.506;24.192;2023-02-28T12:35:13;95909.94;;;5.54;95.01
61961;BME280;47923;42.506;24.192;2023-02-28T12:37:49;96160.25;;;7.19;95.19
61961;BME280;47923;42.506;24.192;2023-02-28T12:40:20;96031.47;;;6.33;95.41
61961;BME280;47923;42.506;24.192;2023-02-28T12:42:49;95949.38;;;5.71;95.67
61961;BME280;47923;42.506;24.192;2023-02-28T12:45:23;96129.00;;;6.89;96.17
61961;BME280;47923;42.506;24.192;2023-02-28T12:47:56;96072.03;;;6.49;96.14
61961;BME280;47923;42.506;24.192;2023-02-28T12:50:22;96008.88;;;5.91;96.28
61961;BME280;47923;42.506;24.192;2023-02-28T12:53:06;96121.59;;;6.51;97.15
61961;BME280;47923;42.506;24.192;2023-02-28T12:55:50;96157.00;;;6.79;96.91
61961;BME280;47923;42.506;24.192;2023-02-28T12:58:45;96153.53;;;6.70;97.47
61961;BME280;47923;42.506;24.192;2023-02-28T13:07:34;96152.25;;;6.85;96.75
61961;BME280;47923;42.506;24.192;2023-02-28T13:10:05;96154.75;;;6.90;96.82
61961;BME280;47923;42.506;24.192;2023-02-28T13:12:33;96140.06;;;6.87;96.42
61961;BME280;47923;42.506;24.192;2023-02-28T13:15:18;96137.88;;;6.72;96.78
61961;BME280;47923;42.506;24.192;2023-02-28T13:17:56;96006.66;;;5.93;97.07
61961;BME280;47923;42.506;24.192;2023-02-28T13:20:34;96140.22;;;6.82;96.76
61961;BME280;47923;42.506;24.192;2023-02-28T13:23:00;96065.53;;;6.15;97.36
61961;BME280;47923;42.506;24.192;2023-02-28T13:28:12;96057.81;;;6.14;97.64
61961;BME280;47923;42.506;24.192;2023-02-28T13:33:30;96135.03;;;6.60;98.55
61961;BME280;47923;42.506;24.192;2023-02-28T13:38:55;96139.13;;;6.57;98.70
61961;BME280;47923;42.506;24.192;2023-02-28T13:46:25;96142.59;;;6.58;98.59
61961;BME280;47923;42.506;24.192;2023-02-28T13:48:50;96144.50;;;6.57;98.75
61961;BME280;47923;42.506;24.192;2023-02-28T13:51:39;96144.50;;;6.57;98.86
61961;BME280;47923;42.506;24.192;2023-02-28T13:54:18;95946.66;;;5.37;98.91
61961;BME280;47923;42.506;24.192;2023-02-28T14:02:34;96151.28;;;6.37;99.68
61961;BME280;47923;42.506;24.192;2023-02-28T14:07:53;96159.81;;;6.40;100.00
61961;BME280;47923;42.506;24.192;2023-02-28T14:10:49;96155.69;;;6.33;99.93
61961;BME280;47923;42.506;24.192;2023-02-28T14:13:41;96164.81;;;6.15;100.00
61961;BME280;47923;42.506;24.192;2023-02-28T14:16:14;96154.56;;;6.17;100.00
61961;BME280;47923;42.506;24.192;2023-02-28T14:19:00;96117.28;;;5.98;100.00
61961;BME280;47923;42.506;24.192;2023-02-28T14:21:29;96068.41;;;5.62;100.00
61961;BME280;47923;42.506;24.192;2023-02-28T14:32:26;96159.88;;;6.08;100.00
61961;BME280;47923;42.506;24.192;2023-02-28T14:34:59;96095.22;;;5.62;100.00
61961;BME280;47923;42.506;24.192;2023-02-28T14:37:31;95862.72;;;4.05;100.00
61961;BME280;47923;42.506;24.192;2023-02-28T14:39:59;96052.19;;;5.27;100.00
61961;BME280;47923;42.506;24.192;2023-02-28T14:42:34;96145.69;;;5.99;100.00
61961;BME280;47923;42.506;24.192;2023-02-28T14:45:01;96153.69;;;5.91;100.00
61961;BME280;47923;42.506;24.192;2023-02-28T14:47:31;96159.53;;;5.93;100.00
61961;BME280;47923;42.506;24.192;2023-02-28T14:49:58;96157.59;;;5.85;100.00
61961;BME280;47923;42.506;24.192;2023-02-28T14:52:29;96174.13;;;5.78;100.00
61961;BME280;47923;42.506;24.192;2023-02-28T14:55:01;95904.97;;;4.25;100.00
61961;BME280;47923;42.506;24.192;2023-02-28T14:57:35;96149.38;;;5.81;100.00
61961;BME280;47923;42.506;24.192;2023-02-28T15:02:37;96075.03;;;5.16;100.00
61961;BME280;47923;42.506;24.192;2023-02-28T15:07:38;96055.25;;;5.03;100.00